Weather at Rady Children's Hospital Cul-de-sac Heliport

Public forecast

Using degrees Fahrenheit for public forecast. Weather courtesy of forecast.io.

Closest aviation weather report (METAR) to Rady Children's Hospital Cul-de-sac Heliport

Closest report is Montgomery-Gibbs Executive Airport, 1.3 nm (2.4 km) NNE.

2024/07/19 05:53 (retrieved 49 minutes ago)

KMYF 190553Z AUTO 26003KT 10SM CLR 19/16 A3000 RMK AO2 SLP155 T01890161 10233 20167 53012

Closest aviation forecast (TAF) to Rady Children's Hospital Cul-de-sac Heliport

Closest forecast is San Diego International Airport, 4.2 nm (7.8 km) SSW.

2024/07/19 06:22 (retrieved 20 minutes ago)

TAF KSAN 190520Z 1906/2012 VRB04KT P6SM BKN012 FM191700 28008KT P6SM SCT017 FM200400 VRB04KT P6SM BKN015